Time;durP1;ratioP1;P1;durP2;ratioP2;P2;SDS_P1;SDS_P2;PMS_P1;PMS_P2;Temp;Humidity;BMP_temperature;BMP_pressure;BME280_temperature;BME280_humidity;BME280_pressure;Samples;Min_cycle;Max_cycle;Signal;HPM_P1;HPM_P2
2022/10/17 00:00:00;;;;;;;0.77;0.70;;;16.50;99.90;17.50;101257.00;;;;5091222;28;20167;-65
2022/10/17 00:02:32;;;;;;;0.60;0.60;;;16.50;99.90;17.50;101250.00;;;;5091298;28;20265;-65
2022/10/17 00:04:58;;;;;;;0.57;0.57;;;16.40;99.90;17.50;101251.00;;;;5091292;28;20189;-65
2022/10/17 00:07:32;;;;;;;0.90;0.90;;;16.40;99.90;17.10;101223.00;;;;5091741;28;20178;-65
2022/10/17 00:10:09;;;;;;;1.03;1.03;;;16.30;99.90;17.20;101248.00;;;;5091318;28;20661;-65
2022/10/17 00:12:35;;;;;;;0.70;0.70;;;16.30;99.90;17.00;101243.00;;;;5091407;28;20202;-65
2022/10/17 00:15:19;;;;;;;0.70;0.70;;;16.20;99.90;17.20;101253.00;;;;5091604;28;20206;-65
2022/10/17 00:17:57;;;;;;;0.63;0.63;;;16.20;99.90;17.00;101247.00;;;;5091040;28;20637;-65
2022/10/17 00:20:26;;;;;;;0.57;0.57;;;16.20;99.90;17.10;101239.00;;;;5090793;28;20264;-65
2022/10/17 00:23:04;;;;;;;0.70;0.70;;;16.20;99.90;17.20;101243.00;;;;5091575;28;20184;-65
2022/10/17 00:25:39;;;;;;;1.83;1.73;;;16.20;99.90;17.30;101206.00;;;;5091206;28;20290;-65
2022/10/17 00:28:15;;;;;;;3.27;1.53;;;16.30;99.90;17.00;101234.00;;;;5091275;28;20527;-65
2022/10/17 00:30:53;;;;;;;1.90;1.80;;;16.20;99.90;17.20;101231.00;;;;5090442;28;20636;-65
2022/10/17 00:33:34;;;;;;;0.70;0.70;;;16.20;99.90;16.90;101239.00;;;;5075380;28;20215;-65
2022/10/17 00:36:20;;;;;;;1.80;1.67;;;16.20;99.90;17.10;101242.00;;;;5090797;28;20184;-65
2022/10/17 00:38:59;;;;;;;0.50;0.50;;;16.20;99.90;17.30;101253.00;;;;5090725;28;20187;-65
2022/10/17 00:41:38;;;;;;;0.80;0.80;;;16.20;99.90;17.10;101218.00;;;;5090599;28;20180;-65
2022/10/17 00:44:30;;;;;;;1.10;1.10;;;16.20;99.90;16.90;101250.00;;;;5073956;28;20275;-65
2022/10/17 00:47:05;;;;;;;1.30;1.30;;;16.10;99.90;16.90;101247.00;;;;5073487;28;20184;-65
2022/10/17 00:49:40;;;;;;;0.60;0.60;;;16.10;99.90;17.00;101245.00;;;;5090044;28;20175;-65
2022/10/17 00:52:21;;;;;;;0.70;0.70;;;16.10;99.90;16.90;101246.00;;;;5090491;28;20211;-65
2022/10/17 00:55:24;;;;;;;2.20;1.50;;;16.10;99.90;16.90;101223.00;;;;5089559;28;20180;-65
2022/10/17 00:57:57;;;;;;;1.50;1.27;;;16.00;99.90;17.10;101213.00;;;;5073726;28;20213;-65
2022/10/17 01:00:38;;;;;;;0.60;0.60;;;16.00;99.90;17.20;101248.00;;;;5090382;28;20179;-65
2022/10/17 01:03:12;;;;;;;1.87;1.77;;;16.20;99.90;16.80;101250.00;;;;5090036;28;20226;-65
2022/10/17 01:05:50;;;;;;;0.90;0.90;;;16.00;99.90;17.20;101239.00;;;;5089757;28;20189;-65
2022/10/17 01:08:27;;;;;;;1.60;0.97;;;16.10;99.90;17.40;101237.00;;;;5089929;28;20186;-65
2022/10/17 01:11:13;;;;;;;0.50;0.50;;;16.30;99.90;17.10;101228.00;;;;5074365;28;20263;-65
2022/10/17 01:14:25;;;;;;;0.73;0.73;;;16.20;99.90;16.90;101245.00;;;;5074300;28;20183;-65
2022/10/17 01:17:23;;;;;;;0.50;0.50;;;16.00;99.90;17.20;101241.00;;;;5074158;28;20176;-65
2022/10/17 01:20:29;;;;;;;0.70;0.70;;;16.00;99.90;16.70;101253.00;;;;5072242;28;20200;-65
2022/10/17 01:23:53;;;;;;;1.77;1.67;;;15.90;99.90;17.10;101248.00;;;;5072648;28;20190;-65
2022/10/17 01:26:36;;;;;;;1.23;1.13;;;15.90;99.90;17.00;101244.00;;;;5083175;28;20292;-65
2022/10/17 01:29:20;;;;;;;1.03;1.03;;;15.90;99.90;17.00;101251.00;;;;5072894;28;20198;-65
2022/10/17 01:32:03;;;;;;;11.67;2.30;;;15.90;99.90;16.60;101257.00;;;;5073959;28;20762;-65
2022/10/17 01:34:45;;;;;;;0.60;0.60;;;15.90;99.90;16.60;101232.00;;;;5089519;28;20676;-65
2022/10/17 01:37:39;;;;;;;1.10;1.10;;;15.90;99.90;16.70;101232.00;;;;5089693;28;20231;-65
2022/10/17 01:40:27;;;;;;;1.97;1.80;;;15.80;99.90;17.00;101241.00;;;;5089479;28;20196;-65
2022/10/17 01:43:10;;;;;;;1.20;1.13;;;15.90;99.90;16.50;101252.00;;;;5072591;28;20184;-65
2022/10/17 01:45:50;;;;;;;1.73;1.47;;;15.80;99.90;16.50;101249.00;;;;5089474;28;20173;-65
2022/10/17 01:48:28;;;;;;;0.60;0.60;;;15.70;99.90;16.50;101252.00;;;;5072447;28;20622;-65
2022/10/17 01:51:04;;;;;;;1.27;1.27;;;15.80;99.90;16.40;101244.00;;;;5089597;28;20185;-65
2022/10/17 01:53:41;;;;;;;0.87;0.87;;;15.70;99.90;16.70;101238.00;;;;5089683;28;20188;-65
2022/10/17 01:56:09;;;;;;;2.00;0.93;;;15.80;99.90;16.80;101244.00;;;;5089279;28;20170;-65
2022/10/17 01:58:45;;;;;;;0.60;0.60;;;15.80;99.90;16.90;101214.00;;;;5089199;28;20188;-65
2022/10/17 02:01:12;;;;;;;0.90;0.90;;;15.90;99.90;16.80;101235.00;;;;5089176;28;20175;-65
2022/10/17 02:03:41;;;;;;;0.60;0.60;;;15.90;99.90;16.70;101226.00;;;;5088969;28;20291;-65
2022/10/17 02:06:07;;;;;;;0.80;0.80;;;15.90;99.90;16.70;101237.00;;;;5088877;28;20198;-65
2022/10/17 02:08:46;;;;;;;1.33;1.23;;;15.80;99.90;16.60;101231.00;;;;5089317;28;20184;-65
2022/10/17 02:11:23;;;;;;;0.87;0.87;;;15.80;99.90;16.50;101239.00;;;;5073701;28;20240;-65
2022/10/17 02:14:18;;;;;;;3.40;2.40;;;15.80;99.90;16.70;101232.00;;;;5073491;28;20229;-65
2022/10/17 02:17:10;;;;;;;0.53;0.53;;;15.80;99.90;16.60;101227.00;;;;5088884;28;20180;-65
2022/10/17 02:20:08;;;;;;;0.60;0.60;;;15.80;99.90;16.50;101236.00;;;;5072273;28;20188;-65
2022/10/17 02:22:52;;;;;;;0.83;0.83;;;15.80;99.90;16.90;101222.00;;;;5072010;28;20212;-65
2022/10/17 02:25:35;;;;;;;0.90;0.90;;;15.90;99.90;16.60;101219.00;;;;5072081;28;20232;-65
2022/10/17 02:28:14;;;;;;;1.27;1.17;;;15.90;99.90;16.80;101222.00;;;;5072188;28;20261;-65
2022/10/17 02:30:54;;;;;;;0.80;0.80;;;15.90;99.90;16.70;101217.00;;;;5071817;28;20184;-65
2022/10/17 02:33:50;;;;;;;1.07;1.07;;;15.90;99.90;16.80;101220.00;;;;5088706;28;20672;-65
2022/10/17 02:36:23;;;;;;;0.50;0.50;;;16.00;99.90;16.80;101217.00;;;;5074038;28;20199;-65
2022/10/17 02:38:51;;;;;;;0.60;0.60;;;16.00;99.90;16.80;101218.00;;;;5089081;28;20639;-65
2022/10/17 02:41:19;;;;;;;0.57;0.57;;;16.00;99.90;16.90;101216.00;;;;5089080;28;20216;-65
2022/10/17 02:43:47;;;;;;;1.27;1.17;;;16.10;99.90;16.90;101214.00;;;;5088603;28;20176;-65
2022/10/17 02:46:21;;;;;;;1.33;1.03;;;16.10;99.90;16.80;101212.00;;;;5088481;28;20177;-65
2022/10/17 02:48:59;;;;;;;0.80;0.80;;;16.10;99.90;16.80;101213.00;;;;5088186;28;20189;-65
2022/10/17 02:51:37;;;;;;;0.60;0.60;;;16.10;99.90;17.00;101220.00;;;;5071735;28;20251;-65
2022/10/17 02:54:35;;;;;;;0.67;0.67;;;16.10;99.90;17.00;101223.00;;;;5088639;28;20212;-64
2022/10/17 02:57:13;;;;;;;2.03;1.90;;;16.10;99.90;17.30;101217.00;;;;5087811;28;20200;-65
2022/10/17 02:59:41;;;;;;;0.60;0.60;;;16.20;99.90;17.30;101219.00;;;;5088608;28;20169;-65
2022/10/17 03:02:07;;;;;;;0.50;0.50;;;16.30;99.90;17.10;101220.00;;;;5088462;28;20196;-65
2022/10/17 03:04:33;;;;;;;0.50;0.50;;;16.30;99.90;17.20;101210.00;;;;5088708;28;20175;-65
2022/10/17 03:06:59;;;;;;;0.50;0.50;;;16.30;99.90;17.30;101213.00;;;;5088320;28;20190;-65
2022/10/17 03:09:26;;;;;;;1.80;0.97;;;16.40;99.90;17.30;101215.00;;;;5088414;28;20180;-65
2022/10/17 03:11:51;;;;;;;0.83;0.83;;;16.40;99.90;17.20;101223.00;;;;5088735;28;20255;-65
2022/10/17 03:14:20;;;;;;;0.50;0.50;;;16.50;99.90;17.40;101235.00;;;;5088635;28;20180;-65
2022/10/17 03:16:46;;;;;;;0.50;0.50;;;16.50;99.90;17.40;101232.00;;;;5088163;28;20179;-65
2022/10/17 03:19:15;;;;;;;0.60;0.60;;;16.60;99.90;17.50;101243.00;;;;5090539;28;20567;-65
2022/10/17 03:21:58;;;;;;;1.33;1.00;;;16.70;99.90;17.40;101242.00;;;;5091954;28;20185;-65
2022/10/17 03:24:24;;;;;;;1.97;1.87;;;16.80;99.90;17.70;101247.00;;;;5092171;28;20178;-65
2022/10/17 03:26:50;;;;;;;0.70;0.70;;;16.80;99.90;17.60;101251.00;;;;5091928;28;20186;-65
2022/10/17 03:29:16;;;;;;;0.60;0.60;;;16.90;99.90;17.70;101241.00;;;;5091935;28;20183;-65
2022/10/17 03:31:42;;;;;;;0.80;0.80;;;16.90;99.90;18.00;101239.00;;;;5091852;28;20302;-65
2022/10/17 03:34:08;;;;;;;0.50;0.50;;;17.10;99.90;18.10;101238.00;;;;5091828;28;20551;-65
2022/10/17 03:36:34;;;;;;;1.13;0.83;;;17.20;99.90;18.00;101250.00;;;;5091884;28;20658;-64
2022/10/17 03:39:00;;;;;;;0.80;0.80;;;17.20;99.90;18.20;101256.00;;;;5091776;28;20282;-65
2022/10/17 03:41:25;;;;;;;0.70;0.70;;;17.30;99.90;18.10;101253.00;;;;5092321;28;20548;-65
2022/10/17 03:43:53;;;;;;;1.10;1.00;;;17.30;99.90;18.10;101252.00;;;;5091408;28;20187;-65
2022/10/17 03:46:19;;;;;;;1.23;0.70;;;17.40;99.90;18.20;101259.00;;;;5091705;28;20253;-65
2022/10/17 03:48:48;;;;;;;0.40;0.40;;;17.40;99.90;18.30;101266.00;;;;5091337;28;20661;-65
2022/10/17 03:51:19;;;;;;;0.40;0.40;;;17.50;99.90;18.60;101263.00;;;;5091810;28;20185;-65
2022/10/17 03:53:45;;;;;;;0.80;0.80;;;17.70;99.90;18.60;101260.00;;;;5092110;28;20619;-65
2022/10/17 03:56:21;;;;;;;0.40;0.40;;;17.70;99.90;18.70;101272.00;;;;5091978;28;20180;-65
2022/10/17 03:58:47;;;;;;;0.80;0.80;;;17.80;99.90;18.80;101265.00;;;;5074632;28;20176;-65
2022/10/17 04:01:16;;;;;;;0.67;0.67;;;17.80;99.90;18.40;101264.00;;;;5091321;28;20544;-65
2022/10/17 04:03:43;;;;;;;0.37;0.37;;;17.80;99.90;18.50;101262.00;;;;5075644;28;20181;-64
2022/10/17 04:06:11;;;;;;;0.70;0.70;;;17.70;99.90;18.60;101262.00;;;;5091542;28;20247;-65
2022/10/17 04:08:38;;;;;;;0.40;0.40;;;17.80;99.90;19.00;101274.00;;;;5091352;28;20181;-65
2022/10/17 04:11:06;;;;;;;0.47;0.47;;;18.00;99.90;18.80;101277.00;;;;5091309;28;20176;-65
2022/10/17 04:13:33;;;;;;;0.30;0.30;;;18.00;99.90;19.00;101247.00;;;;5073965;28;20216;-65
2022/10/17 04:16:04;;;;;;;0.40;0.40;;;18.00;99.90;19.10;101274.00;;;;5091144;28;20264;-65
2022/10/17 04:18:30;;;;;;;0.40;0.40;;;18.10;99.90;18.80;101276.00;;;;5074310;28;20174;-65
2022/10/17 04:20:56;;;;;;;0.63;0.63;;;18.00;99.90;18.80;101274.00;;;;5091095;28;20176;-65
2022/10/17 04:23:22;;;;;;;0.70;0.70;;;18.00;99.90;19.00;101280.00;;;;5090900;28;20184;-65
2022/10/17 04:25:58;;;;;;;0.30;0.30;;;18.10;99.90;19.10;101279.00;;;;5090909;28;20184;-65
2022/10/17 04:28:24;;;;;;;0.73;0.73;;;18.10;99.90;18.90;101268.00;;;;5090839;28;20174;-65
2022/10/17 04:31:03;;;;;;;0.63;0.50;;;18.10;99.90;19.00;101264.00;;;;5075295;28;20519;-65
2022/10/17 04:33:29;;;;;;;0.40;0.40;;;18.10;99.90;19.10;101286.00;;;;5075098;28;20582;-65
2022/10/17 04:35:59;;;;;;;0.40;0.40;;;18.10;99.90;19.10;101294.00;;;;5090678;28;20259;-65
2022/10/17 04:38:26;;;;;;;0.47;0.47;;;18.20;99.90;19.00;101298.00;;;;5073919;28;20185;-65
2022/10/17 04:40:52;;;;;;;0.40;0.40;;;18.10;99.90;18.80;101308.00;;;;5074865;28;20531;-65
2022/10/17 04:43:21;;;;;;;0.30;0.30;;;18.10;99.90;19.00;101313.00;;;;5090598;28;20268;-65
2022/10/17 04:45:47;;;;;;;0.40;0.40;;;18.10;99.90;18.90;101320.00;;;;5090610;28;20182;-65
2022/10/17 04:48:13;;;;;;;1.00;1.00;;;18.00;99.90;19.00;101315.00;;;;5090852;28;20548;-65
2022/10/17 04:50:39;;;;;;;1.53;1.43;;;18.10;99.90;18.90;101309.00;;;;5090563;28;20177;-66
2022/10/17 04:53:05;;;;;;;0.70;0.70;;;18.10;99.90;18.70;101319.00;;;;5090581;28;20269;-65
2022/10/17 04:55:30;;;;;;;0.40;0.40;;;18.00;99.90;18.90;101318.00;;;;5090378;28;20715;-65
2022/10/17 04:57:56;;;;;;;1.70;1.60;;;18.00;99.90;18.70;101310.00;;;;5090288;28;20187;-65
2022/10/17 05:00:22;;;;;;;0.40;0.40;;;18.00;99.90;18.80;101312.00;;;;5090523;28;20177;-65
2022/10/17 05:02:48;;;;;;;0.40;0.40;;;18.00;99.90;19.20;101309.00;;;;5089978;28;20628;-65
2022/10/17 05:05:14;;;;;;;0.47;0.47;;;18.00;99.90;18.90;101309.00;;;;5090090;28;20189;-65
2022/10/17 05:07:40;;;;;;;0.67;0.67;;;18.00;99.90;19.00;101316.00;;;;5090303;28;20177;-65
2022/10/17 05:10:07;;;;;;;0.40;0.40;;;18.00;99.90;18.60;101309.00;;;;5072917;28;20548;-65
2022/10/17 05:12:33;;;;;;;0.70;0.60;;;17.90;99.90;19.00;101310.00;;;;5089902;28;20212;-65
2022/10/17 05:15:34;;;;;;;0.75;0.75;;;18.00;99.90;18.90;101302.00;;;;5090048;28;20189;-65
2022/10/17 05:18:01;;;;;;;0.50;0.50;;;18.00;99.90;19.10;101293.00;;;;5074279;28;20187;-65
2022/10/17 05:20:26;;;;;;;0.60;0.60;;;18.10;99.90;19.00;101289.00;;;;5089678;28;20181;-65
2022/10/17 05:23:05;;;;;;;0.50;0.50;;;18.10;99.90;19.00;101295.00;;;;5089940;28;20702;-65
2022/10/17 05:25:31;;;;;;;0.40;0.40;;;18.10;99.90;19.40;101298.00;;;;5089744;28;20191;-65
2022/10/17 05:27:56;;;;;;;1.10;1.10;;;18.20;99.90;19.40;101298.00;;;;5089873;28;20537;-65
2022/10/17 05:30:22;;;;;;;0.30;0.30;;;18.20;99.90;19.20;101312.00;;;;5089755;28;20231;-65
2022/10/17 05:32:53;;;;;;;0.30;0.30;;;18.20;99.90;19.10;101312.00;;;;5089270;28;20287;-65
2022/10/17 05:35:19;;;;;;;0.30;0.30;;;18.20;99.90;19.20;101322.00;;;;5089492;28;20181;-65
2022/10/17 05:37:46;;;;;;;0.30;0.30;;;18.20;99.90;19.10;101330.00;;;;5089730;28;20184;-65
2022/10/17 05:40:12;;;;;;;0.40;0.40;;;18.10;99.90;19.20;101334.00;;;;5089216;28;20197;-65
2022/10/17 05:42:37;;;;;;;0.30;0.30;;;18.10;99.90;18.90;101332.00;;;;5088965;28;20196;-65
2022/10/17 05:45:04;;;;;;;0.70;0.70;;;18.10;99.90;19.50;101337.00;;;;5089398;28;20184;-65
2022/10/17 05:47:30;;;;;;;0.30;0.30;;;18.40;99.90;18.80;101313.00;;;;5089874;28;20269;-65
2022/10/17 05:49:56;;;;;;;0.55;0.55;;;18.10;99.90;19.00;101342.00;;;;5072734;28;20184;-65
2022/10/17 05:52:25;;;;;;;0.70;0.70;;;18.10;99.90;19.20;101349.00;;;;5089413;28;20220;-65
2022/10/17 05:54:51;;;;;;;0.30;0.30;;;18.20;99.90;19.20;101356.00;;;;5089102;28;20181;-67
2022/10/17 05:57:17;;;;;;;0.35;0.35;;;18.20;99.90;19.10;101344.00;;;;5089497;28;20276;-65
2022/10/17 05:59:43;;;;;;;0.30;0.30;;;18.20;99.90;19.20;101338.00;;;;5089288;28;20652;-65
2022/10/17 06:02:12;;;;;;;0.40;0.40;;;18.20;99.90;19.40;101335.00;;;;5088823;28;20557;-65
2022/10/17 06:04:39;;;;;;;1.60;1.10;;;18.30;99.90;19.30;101331.00;;;;5089425;28;20181;-66
2022/10/17 06:07:05;;;;;;;0.53;0.53;;;18.30;99.90;19.20;101348.00;;;;5089100;28;20187;-66
2022/10/17 06:09:31;;;;;;;0.93;0.93;;;18.30;99.90;19.10;101339.00;;;;5088938;28;20184;-65
2022/10/17 06:12:06;;;;;;;0.50;0.50;;;18.20;99.90;19.20;101328.00;;;;5088913;28;20869;-65
2022/10/17 06:14:32;;;;;;;1.30;0.50;;;18.20;99.90;18.90;101339.00;;;;5073942;28;20190;-64
2022/10/17 06:16:58;;;;;;;0.30;0.30;;;18.20;99.90;18.80;101352.00;;;;5051863;28;20200;-65
2022/10/17 06:19:24;;;;;;;0.40;0.40;;;18.10;99.90;18.80;101362.00;;;;5052194;28;20189;-65
2022/10/17 06:22:01;;;;;;;0.63;0.63;;;18.00;99.90;18.90;101361.00;;;;5052120;28;20182;-65
2022/10/17 06:24:27;;;;;;;1.03;0.77;;;18.00;99.90;18.90;101367.00;;;;5052017;28;20173;-65
2022/10/17 06:26:53;;;;;;;0.30;0.30;;;18.10;99.90;18.90;101370.00;;;;5051741;28;20195;-65
2022/10/17 06:29:19;;;;;;;0.50;0.50;;;18.10;99.90;18.90;101365.00;;;;5051911;28;20181;-65
2022/10/17 06:31:45;;;;;;;0.50;0.50;;;18.10;99.90;18.90;101388.00;;;;5051736;28;20217;-65
2022/10/17 06:34:11;;;;;;;0.50;0.50;;;18.00;99.90;19.00;101396.00;;;;5051555;28;20200;-65
2022/10/17 06:36:37;;;;;;;0.65;0.65;;;18.00;99.90;19.00;101420.00;;;;5051821;28;20209;-65
2022/10/17 06:39:06;;;;;;;0.68;0.68;;;18.00;99.90;18.90;101445.00;;;;5051738;28;20234;-64
2022/10/17 06:41:32;;;;;;;1.47;1.37;;;17.90;99.90;19.50;101477.00;;;;5051943;28;20214;-65
2022/10/17 06:43:57;;;;;;;0.70;0.70;;;18.00;99.90;19.50;101495.00;;;;5051660;28;20627;-64
2022/10/17 06:46:25;;;;;;;0.80;0.80;;;18.10;99.90;18.70;101516.00;;;;5051876;28;20185;-64
2022/10/17 06:48:52;;;;;;;0.93;0.93;;;17.90;99.90;19.10;101528.00;;;;5052001;28;20236;-64
2022/10/17 06:51:21;;;;;;;3.50;3.20;;;17.90;99.90;18.70;101547.00;;;;5051783;28;20209;-64
2022/10/17 06:53:47;;;;;;;1.40;1.40;;;17.90;99.90;18.70;101541.00;;;;5053490;28;20243;-64
2022/10/17 06:56:12;;;;;;;1.27;1.27;;;17.80;99.90;18.70;101540.00;;;;5055985;28;20179;-64
2022/10/17 06:58:39;;;;;;;4.27;3.87;;;17.70;99.90;18.20;101526.00;;;;5055369;28;20185;-65
2022/10/17 07:01:11;;;;;;;1.20;1.20;;;17.60;99.90;18.50;101516.00;;;;5055838;28;20547;-65
2022/10/17 07:03:39;;;;;;;1.50;1.50;;;17.60;99.90;18.50;101506.00;;;;5056978;28;20181;-65
2022/10/17 07:06:09;;;;;;;1.87;1.80;;;17.50;99.90;18.50;101500.00;;;;5055666;28;20270;-65
2022/10/17 07:08:35;;;;;;;1.50;1.50;;;17.50;99.90;18.50;101486.00;;;;5056250;28;20176;-65
2022/10/17 07:11:14;;;;;;;6.87;5.93;;;17.50;99.90;18.20;101488.00;;;;5055516;28;20177;-65
2022/10/17 07:13:40;;;;;;;1.40;1.40;;;17.40;99.90;19.10;101478.00;;;;5056803;28;20184;-65
2022/10/17 07:16:06;;;;;;;1.60;1.60;;;17.60;99.90;19.30;101480.00;;;;5055404;28;20573;-65
2022/10/17 07:18:32;;;;;;;2.00;2.00;;;17.70;99.90;19.00;101494.00;;;;5055290;28;20194;-65
2022/10/17 07:21:02;;;;;;;1.60;1.60;;;17.70;99.90;19.00;101512.00;;;;5054992;28;20188;-66
2022/10/17 07:23:29;;;;;;;1.60;1.60;;;17.70;99.90;18.50;101561.00;;;;5055684;28;20173;-65
2022/10/17 07:26:07;;;;;;;1.83;1.73;;;17.60;99.90;18.10;101590.00;;;;5055399;28;20253;-65
2022/10/17 07:28:41;;;;;;;6.10;1.90;;;17.40;99.90;17.90;101662.00;;;;5055323;28;20190;-65
2022/10/17 07:31:12;;;;;;;1.30;1.30;;;17.30;99.90;18.00;101638.00;;;;5054879;28;20199;-65
2022/10/17 07:33:38;;;;;;;1.67;1.57;;;17.30;99.90;17.90;101624.00;;;;5055058;28;20214;-64
2022/10/17 07:36:04;;;;;;;1.57;1.53;;;17.20;99.90;17.70;101645.00;;;;5054640;28;20548;-64
2022/10/17 07:38:31;;;;;;;1.90;1.80;;;17.10;99.90;17.60;101637.00;;;;5055346;28;20228;-64
2022/10/17 07:41:00;;;;;;;0.90;0.90;;;17.00;99.90;17.90;101630.00;;;;5055082;28;20266;-65
2022/10/17 07:43:27;;;;;;;1.00;1.00;;;17.10;99.90;17.90;101634.00;;;;5054714;28;20279;-65
2022/10/17 07:45:54;;;;;;;1.27;1.27;;;17.00;99.90;17.60;101629.00;;;;5055440;28;20309;-65
2022/10/17 07:48:22;;;;;;;0.90;0.90;;;16.90;99.90;18.10;101591.00;;;;5054839;28;20175;-65
2022/10/17 07:50:52;;;;;;;1.20;1.20;;;17.10;99.90;18.00;101596.00;;;;5071865;28;20195;-64
2022/10/17 07:53:21;;;;;;;1.20;1.20;;;17.10;99.90;17.90;101573.00;;;;5055711;28;20300;-65
2022/10/17 07:55:48;;;;;;;1.20;1.20;;;17.00;99.90;17.80;101567.00;;;;5054876;28;20188;-65
2022/10/17 07:58:19;;;;;;;1.20;1.20;;;16.90;99.90;17.80;101573.00;;;;5054739;28;20187;-65
2022/10/17 08:00:49;;;;;;;1.10;1.10;;;16.90;99.90;17.90;101591.00;;;;5054791;28;20182;-65
2022/10/17 08:03:15;;;;;;;1.60;1.60;;;16.90;99.90;17.90;101590.00;;;;5054601;28;20199;-65
2022/10/17 08:06:07;;;;;;;1.67;1.63;;;17.00;99.90;17.90;101599.00;;;;5053923;28;20185;-65
2022/10/17 08:08:33;;;;;;;1.70;1.70;;;16.90;99.90;18.00;101582.00;;;;5054535;28;20194;-65
2022/10/17 08:11:10;;;;;;;2.43;2.33;;;17.00;99.90;17.90;101600.00;;;;5054410;28;20182;-66
2022/10/17 08:13:40;;;;;;;1.80;1.80;;;17.00;99.90;17.80;101628.00;;;;5054157;28;20294;-66
2022/10/17 08:16:27;;;;;;;1.80;1.77;;;17.00;99.90;17.90;101619.00;;;;5055578;28;20259;-66
2022/10/17 08:22:35;;;;;;;1.90;1.90;;;17.00;99.90;18.10;101616.00;;;;5055198;28;20210;-66
2022/10/17 08:25:00;;;;;;;2.07;1.97;;;17.00;99.90;17.90;101644.00;;;;5055236;28;20188;-66
2022/10/17 08:27:27;;;;;;;3.40;3.20;;;17.00;99.90;17.90;101634.00;;;;5054279;28;20186;-66
2022/10/17 08:29:54;;;;;;;3.33;2.10;;;17.00;99.90;18.10;101612.00;;;;5054447;28;20179;-66
2022/10/17 08:32:24;;;;;;;1.87;1.77;;;17.00;99.90;18.00;101592.00;;;;5053776;28;20210;-65
2022/10/17 08:34:51;;;;;;;1.80;1.80;;;17.00;99.90;18.00;101554.00;;;;5053870;28;20183;-66
2022/10/17 08:37:17;;;;;;;2.07;2.07;;;17.00;99.90;18.00;101584.00;;;;5055188;28;20629;-66
2022/10/17 08:39:43;;;;;;;1.97;1.87;;;17.00;99.90;18.10;101579.00;;;;5054078;28;20273;-66
2022/10/17 08:42:16;;;;;;;2.10;1.97;;;17.00;99.90;18.00;101583.00;;;;5053818;28;20188;-66
2022/10/17 08:44:58;;;;;;;2.13;2.13;;;17.00;99.90;18.10;101583.00;;;;5070257;28;20228;-67
2022/10/17 08:47:42;;;;;;;2.20;2.20;;;17.00;99.90;18.30;101577.00;;;;5070492;28;20179;-66
2022/10/17 08:50:22;;;;;;;2.90;2.80;;;17.10;99.90;18.40;101580.00;;;;5053482;28;20235;-66
2022/10/17 08:52:59;;;;;;;2.73;2.63;;;17.10;99.90;18.10;101565.00;;;;5054786;28;20199;-66
2022/10/17 08:55:44;;;;;;;2.10;2.10;;;17.10;99.90;18.30;101579.00;;;;5053992;28;20202;-66
2022/10/17 08:58:28;;;;;;;2.73;2.63;;;17.20;99.90;18.00;101605.00;;;;5054127;28;20211;-65
2022/10/17 09:01:35;;;;;;;2.80;2.70;;;17.00;99.90;17.80;101621.00;;;;5053396;28;20176;-65
2022/10/17 09:04:44;;;;;;;2.53;2.47;;;16.90;99.90;17.90;101633.00;;;;5052743;28;20196;-65
2022/10/17 09:07:32;;;;;;;2.40;2.30;;;16.90;99.90;17.80;101651.00;;;;5069862;28;20180;-65
2022/10/17 09:10:31;;;;;;;2.10;2.10;;;16.90;99.90;17.90;101662.00;;;;5053493;28;20176;-65
2022/10/17 09:13:43;;;;;;;2.10;2.10;;;16.90;99.90;18.20;101666.00;;;;5052945;28;20222;-65
2022/10/17 09:16:29;;;;;;;2.10;2.10;;;17.00;99.90;18.10;101679.00;;;;5068818;28;20199;-65
2022/10/17 09:19:35;;;;;;;2.23;2.23;;;17.00;99.90;18.00;101646.00;;;;5069421;28;20190;-65
2022/10/17 09:22:09;;;;;;;2.23;2.23;;;16.90;99.90;18.30;101681.00;;;;5052317;28;20201;-65
2022/10/17 09:25:07;;;;;;;2.00;2.00;;;17.10;99.90;18.40;101679.00;;;;5069828;28;20630;-65
2022/10/17 09:27:48;;;;;;;2.10;2.10;;;17.20;99.90;18.10;101687.00;;;;5052433;28;20296;-65
2022/10/17 09:31:06;;;;;;;2.90;2.80;;;17.20;99.90;18.00;101694.00;;;;5053908;28;20209;-65
2022/10/17 09:33:45;;;;;;;1.90;1.90;;;17.20;99.90;17.80;101724.00;;;;5051899;28;20223;-65
2022/10/17 09:36:35;;;;;;;2.17;2.17;;;17.10;99.90;18.40;101709.00;;;;5053854;28;20190;-65
2022/10/17 09:39:31;;;;;;;2.30;2.30;;;17.30;99.90;18.30;101718.00;;;;5052581;28;20255;-65
2022/10/17 09:42:00;;;;;;;2.50;2.43;;;17.40;99.90;18.50;101726.00;;;;5052789;28;20233;-65
2022/10/17 09:44:48;;;;;;;2.47;2.40;;;17.50;99.90;18.90;101717.00;;;;5053102;28;20170;-65
2022/10/17 09:47:20;;;;;;;2.60;2.57;;;17.70;99.90;18.70;101689.00;;;;5052318;28;20169;-65
2022/10/17 09:49:47;;;;;;;2.97;2.87;;;17.70;99.90;18.30;101723.00;;;;5069669;28;20193;-65
2022/10/17 09:52:34;;;;;;;2.70;2.60;;;17.50;99.90;18.60;101718.00;;;;5053633;28;20204;-65
2022/10/17 09:55:20;;;;;;;2.60;2.50;;;17.60;99.90;18.40;101717.00;;;;5052588;28;20238;-65
2022/10/17 09:57:57;;;;;;;2.10;2.10;;;17.70;99.90;17.80;101718.00;;;;5052380;28;20177;-65
2022/10/17 10:00:48;;;;;;;3.10;3.00;;;17.30;99.90;17.90;101731.00;;;;5052101;28;20258;-65
2022/10/17 10:03:25;;;;;;;2.20;2.20;;;17.20;99.90;18.10;101729.00;;;;5051847;28;20197;-65
2022/10/17 10:06:11;;;;;;;2.20;2.20;;;17.30;99.90;18.10;101726.00;;;;5052009;28;20188;-65
2022/10/17 10:09:03;;;;;;;2.03;2.03;;;17.20;99.90;18.10;101738.00;;;;5052637;28;20238;-65
2022/10/17 10:11:51;;;;;;;2.00;2.00;;;17.20;99.90;18.50;101747.00;;;;5052885;28;20199;-65
2022/10/17 10:14:36;;;;;;;2.60;2.50;;;17.30;99.90;19.00;101744.00;;;;5052145;28;20599;-66
2022/10/17 10:17:23;;;;;;;2.90;2.80;;;17.60;99.90;19.20;101748.00;;;;5051832;28;20189;-65
2022/10/17 10:19:51;;;;;;;3.10;3.00;;;17.70;99.90;18.90;101743.00;;;;5052058;28;20189;-65
2022/10/17 10:33:28;;;;;;;1.00;1.00;;;17.00;99.90;17.80;101791.00;;;;5126809;27;20544;-68
2022/10/17 10:36:04;;;;;;;1.20;1.20;;;17.10;99.90;18.30;101790.00;;;;5090752;28;20182;-67
2022/10/17 10:38:32;;;;;;;1.40;1.40;;;17.20;99.90;19.00;101784.00;;;;5105734;28;20643;-67
2022/10/17 10:41:09;;;;;;;1.70;1.70;;;17.50;99.90;18.60;101790.00;;;;5106494;28;20642;-67
2022/10/17 10:44:02;;;;;;;1.70;1.70;;;17.50;99.90;18.20;101795.00;;;;5106378;28;20362;-67
2022/10/17 10:46:28;;;;;;;2.03;2.03;;;17.40;99.90;18.80;101793.00;;;;5089731;28;20218;-67
2022/10/17 10:49:00;;;;;;;3.83;3.53;;;17.60;99.90;18.90;101789.00;;;;5106381;28;20202;-67
2022/10/17 10:51:34;;;;;;;2.20;2.20;;;17.70;99.90;18.70;101790.00;;;;5090395;28;20208;-67
2022/10/17 10:54:15;;;;;;;2.10;2.10;;;17.80;99.90;19.20;101786.00;;;;5106305;28;20188;-67
2022/10/17 10:56:49;;;;;;;2.60;2.50;;;18.10;99.90;19.20;101784.00;;;;5106377;28;20205;-67
2022/10/17 10:59:24;;;;;;;2.72;2.63;;;18.40;99.90;18.70;101782.00;;;;5089013;28;20181;-67
2022/10/17 11:02:14;;;;;;;4.05;3.72;;;18.20;99.90;19.00;101791.00;;;;5106076;28;20188;-67
2022/10/17 11:05:13;;;;;;;2.80;2.70;;;18.40;99.90;19.00;101788.00;;;;5106273;28;20230;-67
2022/10/17 11:07:59;;;;;;;2.28;2.28;;;18.40;99.90;18.70;101780.00;;;;5105756;28;20177;-67
2022/10/17 11:10:54;;;;;;;2.13;2.13;;;18.20;99.90;19.30;101799.00;;;;5105775;28;20199;-67
2022/10/17 11:13:27;;;;;;;2.65;2.55;;;18.50;99.90;19.10;101801.00;;;;5088425;28;20205;-67
2022/10/17 11:16:28;;;;;;;4.35;4.15;;;18.50;99.90;19.40;101799.00;;;;5105834;28;20165;-67
2022/10/17 11:19:25;;;;;;;3.05;2.95;;;18.60;99.90;19.40;101808.00;;;;5105640;28;20243;-67
2022/10/17 11:22:07;;;;;;;3.20;3.10;;;18.80;99.90;20.20;101785.00;;;;5088864;28;20211;-67
2022/10/17 11:25:04;;;;;;;3.47;3.38;;;19.00;99.90;20.00;101797.00;;;;5105703;28;20190;-68
2022/10/17 11:27:31;;;;;;;2.65;2.55;;;19.00;99.90;18.80;101808.00;;;;5104735;28;20247;-67
2022/10/17 11:29:58;;;;;;;1.80;1.80;;;18.70;99.90;18.60;101804.00;;;;5105717;28;20192;-66
2022/10/17 11:32:41;;;;;;;1.58;1.58;;;18.40;99.90;18.80;101810.00;;;;5105119;28;20232;-67
2022/10/17 11:35:20;;;;;;;2.55;2.45;;;18.40;99.90;18.70;101817.00;;;;5105487;28;20201;-67